Alpha Afovos — SZSJ — position and weather

sailwx.info

Track history (hours):
 
Tides and Currents Weather Stations Pressure Air Temp Water Temp Dewpoint Dewpoint Depression Visibility Wind Speed Wind Dir Waves Ship Positions

Alpha Afovos

Last reported at 2018-May-26 19:00 UTC. Time now 2018-May-26 19:26 UTC.
Position S 33°09' E 151°60'.

Length 224 m; draft 7.4 m.

Type: Cargo ship. MMSI: 239802000.

Date/timePositionNaut miles runAvg speedWind from/ knotsBaromVisibWave heightAir tempDewpointWater temp
2018-May-26 19:00S 33°09' E 151°60'0 0.7
2018-May-26 18:30S 33°08' E 152°00'0 0.6
2018-May-26 18:00S 33°08' E 152°00'0 0.6
2018-May-26 17:30S 33°08' E 152°00'0 0.6
2018-May-26 17:00S 33°08' E 152°01'0 0.7
2018-May-26 16:30S 33°07' E 152°01'0 0.6
2018-May-26 16:00S 33°07' E 152°01'0 0.7
2018-May-26 15:30S 33°07' E 152°01'0 0.7
2018-May-26 15:00S 33°06' E 152°01'0 0.7
2018-May-26 14:30S 33°06' E 152°01'0 0.5
2018-May-26 14:00S 33°06' E 152°01'0 0.6
2018-May-26 13:29S 33°06' E 152°02'0 0.8
2018-May-26 13:00S 33°05' E 152°02'1 1.1
2018-May-26 12:30S 33°05' E 152°03'1 1.2
2018-May-26 12:00S 33°05' E 152°03'1 1.5
2018-May-26 11:30S 33°04' E 152°04'1 1.3
2018-May-26 11:00S 33°04' E 152°05'1 1.3
2018-May-26 10:30S 33°04' E 152°05'1 1.1
2018-May-26 10:00S 33°04' E 152°06'0 0.9
2018-May-26 09:30S 33°04' E 152°07'0 0.9
2018-May-26 09:00S 33°04' E 152°07'0 0.7
2018-May-26 08:30S 33°04' E 152°08'0 0.9
2018-May-26 08:00S 33°04' E 152°08'0 0.6
2018-May-26 07:30S 33°04' E 152°08'0 0.6
2018-May-26 07:00S 33°04' E 152°09'0 0.6
2018-May-26 06:30S 33°04' E 152°09'1 0.5
2018-May-26 05:30S 33°04' E 152°10'0 0.7
2018-May-26 05:00S 33°04' E 152°10'0 0.6
2018-May-26 04:30S 33°05' E 152°10'0 0.5
2018-May-26 03:59S 33°05' E 152°11'0 0.4
2018-May-26 03:29S 33°05' E 152°11'0 0.4
2018-May-26 02:59S 33°05' E 152°11'0 0.3
2018-May-26 02:30S 33°05' E 152°11'0 0.3
2018-May-26 02:00S 33°05' E 152°11'0 0.3
2018-May-26 01:20S 33°06' E 152°10'0 0.2
2018-May-26 00:38S 33°06' E 152°10'0 0.2
2018-May-26 00:25S 33°06' E 152°10'0 0.2
2018-May-25 23:50S 33°06' E 152°10'0 0.3
2018-May-25 23:30S 33°06' E 152°10'0 0.3
2018-May-25 22:59S 33°06' E 152°10'0 0.1
2018-May-25 22:26S 33°06' E 152°10'0 0.2
2018-May-25 22:00S 33°06' E 152°10'0 0.4
2018-May-25 21:30S 33°06' E 152°10'0 0.3
2018-May-25 20:58S 33°06' E 152°10'0 0.3
2018-May-25 20:29S 33°06' E 152°11'0 0.5
2018-May-25 20:00S 33°06' E 152°11'0 0.5
2018-May-25 19:30S 33°06' E 152°11'0 0.5
2018-May-25 19:00S 33°06' E 152°12'0 0.7
2018-May-25 18:30S 33°06' E 152°12'0 0.7
2018-May-25 18:00S 33°06' E 152°12'0 0.9
2018-May-25 17:30S 33°06' E 152°13'0 0.8
2018-May-25 16:59S 33°06' E 152°13'0 0.7
2018-May-25 16:27S 33°06' E 152°14'0 0.4
2018-May-25 16:00S 33°06' E 152°14'4 7.8
2018-May-25 15:29S 33°02' E 152°12'4 8.7
2018-May-25 15:00S 32°58' E 152°10'1 2.6
2018-May-25 14:30S 32°58' E 152°09'0 1.0
2018-May-25 14:00S 32°58' E 152°09'0 0.8
2018-May-25 13:30S 32°58' E 152°09'0 0.8
2018-May-25 13:00S 32°59' E 152°09'0 0.8
2018-May-25 12:30S 32°59' E 152°09'0 0.8
2018-May-25 12:00S 32°60' E 152°09'0 0.8
2018-May-25 11:30S 32°60' E 152°09'0 0.8
2018-May-25 11:00S 33°00' E 152°09'0 0.8
2018-May-25 10:30S 33°01' E 152°09'0 0.9
2018-May-25 09:59S 33°01' E 152°09'0 0.8
2018-May-25 09:30S 33°02' E 152°09'0 0.8
2018-May-25 09:00S 33°02' E 152°09'0 0.9
2018-May-25 08:30S 33°02' E 152°09'3 5.4
2018-May-25 08:00S 33°01' E 152°06'2 3.9
2018-May-25 07:30S 32°59' E 152°06'3 6.8
2018-May-25 07:00S 33°01' E 152°10'4 7.5
2018-May-25 06:30S 33°03' E 152°13'3 6.0
2018-May-25 06:00S 33°05' E 152°16'3 5.8
2018-May-25 05:30S 33°07' E 152°19'3 5.4
2018-May-25 05:00S 33°09' E 152°21'0 0.9
2018-May-25 04:30S 33°09' E 152°21'4 7.9
2018-May-25 04:00S 33°06' E 152°18'4 7.7
2018-May-25 03:30S 33°03' E 152°15'4 7.6
2018-May-25 03:00S 33°00' E 152°12'3 5.6
2018-May-25 02:30S 32°58' E 152°10'2 5.0
2018-May-25 02:00S 33°00' E 152°12'4 8.8
2018-May-25 01:30S 33°04' E 152°14'1 2.9
2018-May-25 01:00S 33°06' E 152°14'0 1.0
2018-May-25 00:30S 33°06' E 152°14'0 1.0
2018-May-25 00:00S 33°06' E 152°13'0 0.9
2018-May-24 23:30S 33°07' E 152°13'0 0.8
2018-May-24 23:00S 33°07' E 152°13'0 0.7
2018-May-24 22:30S 33°07' E 152°13'0 0.6
2018-May-24 21:59S 33°08' E 152°13'0 0.5
2018-May-24 21:30S 33°08' E 152°13'0 0.5
2018-May-24 21:00S 33°08' E 152°13'0 0.5
2018-May-24 20:30S 33°08' E 152°13'0 0.4
2018-May-24 19:59S 33°09' E 152°13'0 0.4
2018-May-24 19:28S 33°09' E 152°13'0 0.4
2018-May-24 18:55S 33°09' E 152°13'0 0.4
2018-May-24 18:29S 33°09' E 152°13'0 0.3
2018-May-24 18:00S 33°09' E 152°13'0 0.2
2018-May-24 17:30S 33°09' E 152°13'5 4.1
2018-May-24 16:17S 33°05' E 152°09'1 4.4
2018-May-24 16:00S 33°05' E 152°08'2 4.4
2018-May-24 15:30S 33°03' E 152°06'2 4.9
2018-May-24 15:00S 33°01' E 152°04'2 4.5
2018-May-24 14:30S 32°60' E 152°02'3 5.3
2018-May-24 14:00S 32°58' E 152°00'3 5.0
2018-May-24 13:30S 32°57' E 152°03'  
Track history (hours):
 
Tides and Currents Weather Stations Pressure Air Temp Water Temp Dewpoint Dewpoint Depression Visibility Wind Speed Wind Dir Waves Ship Positions

Alpha Afovos

Last reported at 2018-May-26 19:00 UTC. Time now 2018-May-26 19:26 UTC.
Position S 33°09' E 151°60'.

Length 224 m; draft 7.4 m.

Type: Cargo ship. MMSI: 239802000.

Date/timePositionNaut miles runAvg speedWind from/ knotsBaromVisibWave heightAir tempDewpointWater temp
2018-May-26 19:00S 33°09' E 151°60'0 0.7
2018-May-26 18:30S 33°08' E 152°00'0 0.6
2018-May-26 18:00S 33°08' E 152°00'0 0.6
2018-May-26 17:30S 33°08' E 152°00'0 0.6
2018-May-26 17:00S 33°08' E 152°01'0 0.7
2018-May-26 16:30S 33°07' E 152°01'0 0.6
2018-May-26 16:00S 33°07' E 152°01'0 0.7
2018-May-26 15:30S 33°07' E 152°01'0 0.7
2018-May-26 15:00S 33°06' E 152°01'0 0.7
2018-May-26 14:30S 33°06' E 152°01'0 0.5
2018-May-26 14:00S 33°06' E 152°01'0 0.6
2018-May-26 13:29S 33°06' E 152°02'0 0.8
2018-May-26 13:00S 33°05' E 152°02'1 1.1
2018-May-26 12:30S 33°05' E 152°03'1 1.2
2018-May-26 12:00S 33°05' E 152°03'1 1.5
2018-May-26 11:30S 33°04' E 152°04'1 1.3
2018-May-26 11:00S 33°04' E 152°05'1 1.3
2018-May-26 10:30S 33°04' E 152°05'1 1.1
2018-May-26 10:00S 33°04' E 152°06'0 0.9
2018-May-26 09:30S 33°04' E 152°07'0 0.9
2018-May-26 09:00S 33°04' E 152°07'0 0.7
2018-May-26 08:30S 33°04' E 152°08'0 0.9
2018-May-26 08:00S 33°04' E 152°08'0 0.6
2018-May-26 07:30S 33°04' E 152°08'0 0.6
2018-May-26 07:00S 33°04' E 152°09'0 0.6
2018-May-26 06:30S 33°04' E 152°09'1 0.5
2018-May-26 05:30S 33°04' E 152°10'0 0.7
2018-May-26 05:00S 33°04' E 152°10'0 0.6
2018-May-26 04:30S 33°05' E 152°10'0 0.5
2018-May-26 03:59S 33°05' E 152°11'0 0.4
2018-May-26 03:29S 33°05' E 152°11'0 0.4
2018-May-26 02:59S 33°05' E 152°11'0 0.3
2018-May-26 02:30S 33°05' E 152°11'0 0.3
2018-May-26 02:00S 33°05' E 152°11'0 0.3
2018-May-26 01:20S 33°06' E 152°10'0 0.2
2018-May-26 00:38S 33°06' E 152°10'0 0.2
2018-May-26 00:25S 33°06' E 152°10'0 0.2
2018-May-25 23:50S 33°06' E 152°10'0 0.3
2018-May-25 23:30S 33°06' E 152°10'0 0.3
2018-May-25 22:59S 33°06' E 152°10'0 0.1
2018-May-25 22:26S 33°06' E 152°10'0 0.2
2018-May-25 22:00S 33°06' E 152°10'0 0.4
2018-May-25 21:30S 33°06' E 152°10'0 0.3
2018-May-25 20:58S 33°06' E 152°10'0 0.3
2018-May-25 20:29S 33°06' E 152°11'0 0.5
2018-May-25 20:00S 33°06' E 152°11'0 0.5
2018-May-25 19:30S 33°06' E 152°11'0 0.5
2018-May-25 19:00S 33°06' E 152°12'0 0.7
2018-May-25 18:30S 33°06' E 152°12'0 0.7
2018-May-25 18:00S 33°06' E 152°12'0 0.9
2018-May-25 17:30S 33°06' E 152°13'0 0.8
2018-May-25 16:59S 33°06' E 152°13'0 0.7
2018-May-25 16:27S 33°06' E 152°14'0 0.4
2018-May-25 16:00S 33°06' E 152°14'4 7.8
2018-May-25 15:29S 33°02' E 152°12'4 8.7
2018-May-25 15:00S 32°58' E 152°10'1 2.6
2018-May-25 14:30S 32°58' E 152°09'0 1.0
2018-May-25 14:00S 32°58' E 152°09'0 0.8
2018-May-25 13:30S 32°58' E 152°09'0 0.8
2018-May-25 13:00S 32°59' E 152°09'0 0.8
2018-May-25 12:30S 32°59' E 152°09'0 0.8
2018-May-25 12:00S 32°60' E 152°09'0 0.8
2018-May-25 11:30S 32°60' E 152°09'0 0.8
2018-May-25 11:00S 33°00' E 152°09'0 0.8
2018-May-25 10:30S 33°01' E 152°09'0 0.9
2018-May-25 09:59S 33°01' E 152°09'0 0.8
2018-May-25 09:30S 33°02' E 152°09'0 0.8
2018-May-25 09:00S 33°02' E 152°09'0 0.9
2018-May-25 08:30S 33°02' E 152°09'3 5.4
2018-May-25 08:00S 33°01' E 152°06'2 3.9
2018-May-25 07:30S 32°59' E 152°06'3 6.8
2018-May-25 07:00S 33°01' E 152°10'4 7.5
2018-May-25 06:30S 33°03' E 152°13'3 6.0
2018-May-25 06:00S 33°05' E 152°16'3 5.8
2018-May-25 05:30S 33°07' E 152°19'3 5.4
2018-May-25 05:00S 33°09' E 152°21'0 0.9
2018-May-25 04:30S 33°09' E 152°21'4 7.9
2018-May-25 04:00S 33°06' E 152°18'4 7.7
2018-May-25 03:30S 33°03' E 152°15'4 7.6
2018-May-25 03:00S 33°00' E 152°12'3 5.6
2018-May-25 02:30S 32°58' E 152°10'2 5.0
2018-May-25 02:00S 33°00' E 152°12'4 8.8
2018-May-25 01:30S 33°04' E 152°14'1 2.9
2018-May-25 01:00S 33°06' E 152°14'0 1.0
2018-May-25 00:30S 33°06' E 152°14'0 1.0
2018-May-25 00:00S 33°06' E 152°13'0 0.9
2018-May-24 23:30S 33°07' E 152°13'0 0.8
2018-May-24 23:00S 33°07' E 152°13'0 0.7
2018-May-24 22:30S 33°07' E 152°13'0 0.6
2018-May-24 21:59S 33°08' E 152°13'0 0.5
2018-May-24 21:30S 33°08' E 152°13'0 0.5
2018-May-24 21:00S 33°08' E 152°13'0 0.5
2018-May-24 20:30S 33°08' E 152°13'0 0.4
2018-May-24 19:59S 33°09' E 152°13'0 0.4
2018-May-24 19:28S 33°09' E 152°13'0 0.4
2018-May-24 18:55S 33°09' E 152°13'0 0.4
2018-May-24 18:29S 33°09' E 152°13'0 0.3
2018-May-24 18:00S 33°09' E 152°13'0 0.2
2018-May-24 17:30S 33°09' E 152°13'5 4.1
2018-May-24 16:17S 33°05' E 152°09'1 4.4
2018-May-24 16:00S 33°05' E 152°08'2 4.4
2018-May-24 15:30S 33°03' E 152°06'2 4.9
2018-May-24 15:00S 33°01' E 152°04'2 4.5
2018-May-24 14:30S 32°60' E 152°02'3 5.3
2018-May-24 14:00S 32°58' E 152°00'3 5.0
2018-May-24 13:30S 32°57' E 152°03'  

Dump ship's entire track history